createdAt,value
2019-02-25T00:01:27.661Z,0.10
2019-02-25T00:03:58.240Z,-0.10
2019-02-25T00:06:29.269Z,-0.10
2019-02-25T00:11:33.541Z,-0.20
2019-02-25T00:14:03.633Z,-0.20
2019-02-25T00:19:04.959Z,-0.30
2019-02-25T00:21:35.085Z,-0.30
2019-02-25T00:24:05.785Z,-0.40
2019-02-25T00:26:36.080Z,-0.40
2019-02-25T00:29:06.680Z,-0.40
2019-02-25T00:31:36.947Z,-0.20
2019-02-25T00:34:07.332Z,-0.60
2019-02-25T00:36:37.519Z,-0.60
2019-02-25T00:39:08.909Z,-0.50
2019-02-25T00:41:38.835Z,-0.50
2019-02-25T00:44:09.092Z,-0.60
2019-02-25T00:46:39.104Z,-0.60
2019-02-25T00:49:10.619Z,-0.60
2019-02-25T00:51:40.723Z,-0.50
2019-02-25T00:54:11.010Z,-0.50
2019-02-25T00:56:41.139Z,-0.50
2019-02-25T00:59:11.255Z,-0.40
2019-02-25T01:01:41.567Z,-0.40
2019-02-25T01:04:11.918Z,-0.60
2019-02-25T01:06:43.059Z,-0.40
2019-02-25T01:09:13.179Z,-0.30
2019-02-25T01:11:43.273Z,-0.20
2019-02-25T01:14:13.453Z,-0.20
2019-02-25T01:16:43.557Z,0.00
2019-02-25T01:21:43.300Z,0.10
2019-02-25T01:24:13.349Z,0.10
2019-02-25T01:26:43.470Z,0.30
2019-02-25T01:29:13.609Z,0.20
2019-02-25T01:31:43.805Z,0.20
2019-02-25T01:34:14.366Z,0.10
2019-02-25T01:36:44.531Z,0.20
2019-02-25T01:39:14.703Z,0.20
2019-02-25T01:41:44.917Z,0.10
2019-02-25T01:44:15.012Z,-0.20
2019-02-25T01:46:45.119Z,0.10
2019-02-25T01:49:15.354Z,0.10
2019-02-25T01:51:45.258Z,0.10
2019-02-25T01:54:15.863Z,0.00
2019-02-25T01:59:15.681Z,-0.10
2019-02-25T02:01:45.849Z,0.10
2019-02-25T02:04:15.961Z,0.00
2019-02-25T02:06:46.002Z,0.00
2019-02-25T02:09:16.293Z,-0.20
2019-02-25T02:11:46.394Z,-0.20
2019-02-25T02:14:16.549Z,-0.30
2019-02-25T02:16:46.510Z,-0.70
2019-02-25T02:19:16.749Z,-0.40
2019-02-25T02:21:47.012Z,-0.30
2019-02-25T02:24:16.987Z,-0.50
2019-02-25T02:26:46.989Z,-0.50
2019-02-25T02:29:17.367Z,-0.50
2019-02-25T02:31:47.419Z,-0.50
2019-02-25T02:34:17.526Z,-0.70
2019-02-25T02:36:47.605Z,0.00
2019-02-25T02:39:17.570Z,-0.50
2019-02-25T02:42:13.131Z,-0.30
2019-02-25T02:44:45.163Z,-0.70
2019-02-25T02:47:24.389Z,-0.80
2019-02-25T02:49:54.494Z,-0.70
2019-02-25T02:52:24.624Z,-0.70
2019-02-25T02:54:54.769Z,-0.80
2019-02-25T02:57:25.792Z,-0.80
2019-02-25T02:59:55.932Z,-0.70
2019-02-25T03:04:57.466Z,0.00
2019-02-25T03:07:27.702Z,-0.60
2019-02-25T03:12:29.294Z,-0.80
2019-02-25T03:20:00.450Z,-1.00
2019-02-25T03:22:30.590Z,-1.00
2019-02-25T03:25:00.794Z,-1.00
2019-02-25T03:27:30.990Z,-0.90
2019-02-25T03:30:00.960Z,-1.00
2019-02-25T03:32:31.364Z,-0.90
2019-02-25T03:35:01.441Z,-1.00
2019-02-25T03:37:31.424Z,-1.00
2019-02-25T03:40:01.685Z,-0.90
2019-02-25T03:45:01.634Z,-0.40
2019-02-25T03:47:33.094Z,-1.10
2019-02-25T03:50:03.151Z,-1.10
2019-02-25T03:52:33.330Z,-1.00
2019-02-25T03:55:03.801Z,-1.00
2019-02-25T03:57:36.093Z,-0.90
2019-02-25T04:00:14.334Z,-1.00
2019-02-25T04:02:44.542Z,-1.10
2019-02-25T04:05:15.723Z,-0.90
2019-02-25T04:07:47.282Z,-0.90
2019-02-25T04:10:18.931Z,-0.80
2019-02-25T04:12:49.204Z,-0.80
2019-02-25T04:15:21.887Z,-0.80
2019-02-25T04:17:52.069Z,-0.60
2019-02-25T04:20:22.438Z,-0.80
2019-02-25T04:22:53.621Z,-0.70
2019-02-25T04:25:23.665Z,-0.80
2019-02-25T04:27:53.971Z,-0.60
2019-02-25T04:30:24.229Z,-0.70
2019-02-25T04:32:55.684Z,-0.70
2019-02-25T04:35:25.798Z,-0.80
2019-02-25T04:37:55.945Z,-0.70
2019-02-25T04:40:25.904Z,-0.30
2019-02-25T04:42:57.116Z,-0.20
2019-02-25T04:45:27.181Z,-0.60
2019-02-25T04:47:57.181Z,-0.70
2019-02-25T04:50:27.248Z,-0.70
2019-02-25T04:52:57.459Z,-0.70
2019-02-25T04:55:27.674Z,0.00
2019-02-25T04:57:58.740Z,-0.90
2019-02-25T05:00:28.850Z,-0.70
2019-02-25T05:02:59.162Z,-0.60
2019-02-25T05:05:29.287Z,-0.70
2019-02-25T05:07:59.308Z,-0.60
2019-02-25T05:10:29.421Z,-0.50
2019-02-25T05:13:01.077Z,-0.50
2019-02-25T05:15:32.432Z,-0.50
2019-02-25T05:18:03.300Z,-0.50
2019-02-25T05:20:33.381Z,-0.60
2019-02-25T05:23:03.626Z,-0.50
2019-02-25T05:25:33.948Z,-0.90
2019-02-25T05:28:04.319Z,-0.30
2019-02-25T05:30:34.478Z,-0.60
2019-02-25T05:33:04.671Z,-0.50
2019-02-25T05:35:34.860Z,-0.50
2019-02-25T05:38:06.114Z,-0.60
2019-02-25T05:40:36.099Z,-0.60
2019-02-25T05:43:06.240Z,-0.60
2019-02-25T05:45:36.316Z,-0.50
2019-02-25T05:48:06.574Z,-0.30
2019-02-25T05:50:36.687Z,-0.50
2019-02-25T05:53:06.809Z,-0.50
2019-02-25T05:55:37.129Z,-0.50
2019-02-25T05:58:07.362Z,-0.40
2019-02-25T06:00:37.494Z,-0.40
2019-02-25T06:05:37.221Z,-0.10
2019-02-25T06:08:07.420Z,-0.10
2019-02-25T06:10:37.503Z,0.00
2019-02-25T06:13:07.755Z,0.00
2019-02-25T06:15:37.993Z,0.70
2019-02-25T06:18:08.112Z,0.10
2019-02-25T06:20:38.232Z,0.10
2019-02-25T06:23:08.434Z,0.20
2019-02-25T06:25:38.456Z,0.30
2019-02-25T06:28:08.679Z,0.30
2019-02-25T06:30:38.784Z,0.50
2019-02-25T06:33:08.973Z,0.70
2019-02-25T06:35:39.223Z,0.60
2019-02-25T06:38:09.404Z,0.60
2019-02-25T06:40:39.403Z,1.10
2019-02-25T06:43:09.694Z,1.30
2019-02-25T06:45:39.700Z,1.30
2019-02-25T06:48:09.817Z,1.50
2019-02-25T06:50:39.798Z,1.70
2019-02-25T06:53:11.087Z,2.00
2019-02-25T06:55:41.315Z,2.10
2019-02-25T06:58:11.632Z,2.60
2019-02-25T07:00:42.660Z,2.30
2019-02-25T07:03:14.111Z,2.20
2019-02-25T07:05:46.499Z,2.30
2019-02-25T07:08:24.638Z,2.40
2019-02-25T07:10:57.577Z,2.60
2019-02-25T07:13:31.487Z,2.70
2019-02-25T07:18:40.539Z,2.90
2019-02-25T07:21:18.323Z,2.70
2019-02-25T07:24:07.942Z,2.70
2019-02-25T07:26:39.509Z,2.60
2019-02-25T07:29:17.244Z,2.80
2019-02-25T07:32:07.136Z,2.70
2019-02-25T07:34:38.886Z,2.90
2019-02-25T07:42:37.615Z,2.90
2019-02-25T07:45:13.083Z,3.10
2019-02-25T07:47:45.127Z,3.30
2019-02-25T07:50:19.845Z,3.10
2019-02-25T07:53:08.891Z,3.30
2019-02-25T07:58:12.102Z,3.20
2019-02-25T08:00:43.849Z,3.40
2019-02-25T08:03:27.589Z,3.60
2019-02-25T08:05:59.346Z,3.60
2019-02-25T08:08:31.110Z,3.70
2019-02-25T08:11:05.723Z,3.60
2019-02-25T08:13:46.820Z,3.60
2019-02-25T08:16:21.538Z,3.80
2019-02-25T08:18:54.195Z,3.60
2019-02-25T08:21:31.950Z,3.60
2019-02-25T08:24:09.902Z,3.60
2019-02-25T08:26:58.148Z,3.80
2019-02-25T08:29:33.901Z,4.30
2019-02-25T08:32:05.758Z,3.90
2019-02-25T08:34:40.176Z,3.90
2019-02-25T08:37:26.477Z,4.10
2019-02-25T08:40:13.395Z,4.00
2019-02-25T08:42:43.931Z,4.10
2019-02-25T08:45:27.496Z,4.00
2019-02-25T08:48:02.796Z,4.20
2019-02-25T08:53:02.771Z,4.00
2019-02-25T08:55:33.062Z,4.00
2019-02-25T09:00:33.884Z,4.00
2019-02-25T09:03:04.106Z,4.30
2019-02-25T09:05:35.573Z,4.30
2019-02-25T09:08:05.691Z,4.50
2019-02-25T09:10:35.799Z,4.10
2019-02-25T09:13:06.242Z,4.00
2019-02-25T09:15:36.575Z,4.40
2019-02-25T09:18:05.307Z,4.50
2019-02-25T09:20:35.476Z,4.50
2019-02-25T09:23:05.495Z,4.50
2019-02-25T09:25:37.116Z,4.70
2019-02-25T09:28:07.105Z,4.70
2019-02-25T09:30:37.391Z,4.80
2019-02-25T09:33:07.381Z,5.00
2019-02-25T09:35:37.723Z,5.00
2019-02-25T09:38:08.005Z,5.20
2019-02-25T09:40:38.416Z,5.20
2019-02-25T09:45:39.417Z,5.00
2019-02-25T09:48:09.615Z,5.30
2019-02-25T09:50:39.602Z,5.20
2019-02-25T09:53:09.659Z,5.60
2019-02-25T09:55:39.705Z,5.60
2019-02-25T09:58:09.777Z,5.70
2019-02-25T10:00:40.346Z,5.90
2019-02-25T10:03:10.968Z,5.90
2019-02-25T10:05:41.685Z,6.10
2019-02-25T10:08:12.001Z,6.20
2019-02-25T10:10:42.102Z,6.20
2019-02-25T10:13:12.240Z,6.30
2019-02-25T10:15:42.323Z,6.30
2019-02-25T10:18:12.452Z,6.30
2019-02-25T10:20:42.789Z,6.50
2019-02-25T10:23:13.131Z,6.50
2019-02-25T10:25:43.349Z,6.50
2019-02-25T10:28:13.265Z,6.60
2019-02-25T10:30:52.404Z,6.70
2019-02-25T10:33:15.365Z,7.10
2019-02-25T10:35:45.502Z,6.60
2019-02-25T10:38:16.475Z,6.90
2019-02-25T10:40:47.513Z,6.90
2019-02-25T10:43:18.562Z,6.90
2019-02-25T10:45:48.679Z,7.00
2019-02-25T10:48:19.828Z,7.00
2019-02-25T10:50:55.945Z,7.50
2019-02-25T10:53:22.196Z,7.20
2019-02-25T10:56:01.434Z,7.30
2019-02-25T10:58:33.519Z,7.30
2019-02-25T11:01:03.714Z,7.40
2019-02-25T11:03:33.767Z,7.40
2019-02-25T11:06:03.925Z,7.40
2019-02-25T11:08:35.267Z,7.50
2019-02-25T11:11:07.237Z,7.70
2019-02-25T11:13:38.290Z,7.50
2019-02-25T11:18:40.709Z,7.70
2019-02-25T11:21:10.896Z,7.80
2019-02-25T11:23:42.897Z,7.70
2019-02-25T11:26:12.942Z,7.70
2019-02-25T11:28:43.780Z,7.80
2019-02-25T11:31:15.472Z,7.90
2019-02-25T11:33:45.883Z,7.90
2019-02-25T11:38:47.345Z,8.10
2019-02-25T11:41:17.485Z,8.30
2019-02-25T11:43:48.685Z,8.60
2019-02-25T11:46:19.550Z,8.60
2019-02-25T11:48:50.651Z,8.70
2019-02-25T11:51:21.115Z,8.80
2019-02-25T11:53:51.281Z,8.60
2019-02-25T11:56:21.420Z,9.20
2019-02-25T11:58:51.568Z,8.60
2019-02-25T12:01:21.707Z,8.70
2019-02-25T12:03:53.462Z,8.60
2019-02-25T12:06:23.619Z,9.10
2019-02-25T12:08:53.623Z,8.90
2019-02-25T12:11:23.839Z,9.10
2019-02-25T12:13:53.936Z,9.20
2019-02-25T12:16:24.461Z,9.20
2019-02-25T12:18:54.649Z,9.70
2019-02-25T12:21:25.021Z,9.10
2019-02-25T12:23:55.116Z,9.80
2019-02-25T12:26:25.297Z,9.50
2019-02-25T12:28:55.555Z,9.40
2019-02-25T12:31:25.791Z,9.40
2019-02-25T12:33:56.950Z,9.10
2019-02-25T12:36:27.158Z,9.40
2019-02-25T12:38:57.259Z,9.60
2019-02-25T12:41:27.894Z,9.40
2019-02-25T12:43:58.319Z,9.40
2019-02-25T12:46:28.381Z,9.60
2019-02-25T12:48:58.636Z,9.20
2019-02-25T12:51:28.751Z,9.10
2019-02-25T12:53:58.696Z,8.90
2019-02-25T12:56:28.799Z,8.80
2019-02-25T12:58:58.922Z,8.50
2019-02-25T13:01:29.134Z,8.60
2019-02-25T13:03:59.143Z,8.60
2019-02-25T13:06:29.391Z,8.50
2019-02-25T13:09:00.414Z,8.50
2019-02-25T13:11:32.087Z,8.80
2019-02-25T13:14:02.118Z,8.80
2019-02-25T13:16:33.762Z,9.00
2019-02-25T13:19:03.911Z,9.10
2019-02-25T13:21:33.977Z,9.00
2019-02-25T13:26:36.589Z,9.30
2019-02-25T13:29:07.277Z,9.80
2019-02-25T13:31:37.387Z,9.30
2019-02-25T13:34:07.647Z,9.50
2019-02-25T13:36:38.503Z,9.40
2019-02-25T13:39:08.873Z,9.40
2019-02-25T13:41:40.053Z,9.10
2019-02-25T13:44:10.687Z,9.20
2019-02-25T13:46:41.241Z,8.90
2019-02-25T13:49:11.405Z,8.70
2019-02-25T13:51:41.634Z,8.40
2019-02-25T13:54:11.762Z,8.40
2019-02-25T13:56:41.991Z,8.00
2019-02-25T13:59:12.581Z,7.90
2019-02-25T14:01:42.652Z,7.80
2019-02-25T14:04:12.850Z,7.70
2019-02-25T14:06:43.629Z,7.40
2019-02-25T14:09:14.227Z,7.30
2019-02-25T14:11:45.961Z,7.30
2019-02-25T14:14:16.227Z,7.20
2019-02-25T14:16:46.375Z,7.20
2019-02-25T14:19:16.738Z,7.20
2019-02-25T14:21:47.046Z,7.20
2019-02-25T14:24:18.417Z,7.30
2019-02-25T14:26:49.084Z,7.30
2019-02-25T14:29:19.360Z,7.30
2019-02-25T14:31:51.059Z,7.40
2019-02-25T14:34:21.425Z,7.20
2019-02-25T14:36:52.471Z,7.20
2019-02-25T14:39:27.779Z,7.10
2019-02-25T14:41:59.151Z,6.90
2019-02-25T14:44:32.302Z,6.90
2019-02-25T14:47:01.119Z,6.80
2019-02-25T14:49:32.660Z,6.80
2019-02-25T14:52:03.827Z,6.10
2019-02-25T14:54:35.254Z,6.30
2019-02-25T14:57:08.243Z,6.20
2019-02-25T14:59:38.473Z,6.00
2019-02-25T15:02:09.295Z,6.20
2019-02-25T15:04:41.798Z,5.60
2019-02-25T15:07:13.512Z,5.50
2019-02-25T15:09:45.588Z,5.30
2019-02-25T15:12:15.881Z,5.20
2019-02-25T15:14:46.125Z,5.10
2019-02-25T15:17:16.282Z,5.00
2019-02-25T15:19:46.687Z,4.80
2019-02-25T15:22:18.091Z,4.90
2019-02-25T15:24:50.245Z,4.40
2019-02-25T15:27:20.348Z,4.20
2019-02-25T15:29:50.732Z,4.20
2019-02-25T15:32:21.225Z,4.00
2019-02-25T15:34:52.793Z,3.80
2019-02-25T15:39:55.918Z,3.80
2019-02-25T15:42:26.061Z,3.80
2019-02-25T15:44:57.578Z,3.60
2019-02-25T15:47:27.924Z,3.70
2019-02-25T15:50:01.694Z,3.90
2019-02-25T15:55:01.925Z,3.80
2019-02-25T15:57:35.384Z,3.80
2019-02-25T16:00:12.837Z,3.60
2019-02-25T16:02:42.943Z,3.60
2019-02-25T16:05:13.396Z,3.60
2019-02-25T16:07:43.881Z,3.50
2019-02-25T16:10:16.265Z,3.70
2019-02-25T16:12:48.712Z,3.50
2019-02-25T16:15:20.999Z,3.70
2019-02-25T16:17:51.797Z,3.50
2019-02-25T16:20:23.109Z,3.30
2019-02-25T16:22:56.308Z,3.50
2019-02-25T16:25:27.574Z,3.30
2019-02-25T16:27:59.142Z,3.50
2019-02-25T16:30:30.760Z,3.60
2019-02-25T16:33:04.338Z,3.60
2019-02-25T16:35:34.338Z,3.50
2019-02-25T16:38:05.699Z,3.50
2019-02-25T16:40:38.349Z,3.50
2019-02-25T16:43:12.111Z,3.40
2019-02-25T16:45:43.943Z,3.40
2019-02-25T16:48:12.690Z,3.30
2019-02-25T16:50:44.589Z,3.80
2019-02-25T16:53:15.474Z,3.30
2019-02-25T16:55:47.384Z,3.20
2019-02-25T16:58:19.872Z,3.20
2019-02-25T17:00:50.386Z,3.30
2019-02-25T17:03:21.304Z,3.30
2019-02-25T17:05:52.015Z,3.30
2019-02-25T17:08:23.993Z,3.30
2019-02-25T17:10:56.062Z,3.20
2019-02-25T17:13:26.382Z,3.20
2019-02-25T17:15:56.503Z,3.20
2019-02-25T17:18:26.571Z,3.80
2019-02-25T17:23:27.646Z,3.20
2019-02-25T17:25:58.755Z,3.10
2019-02-25T17:28:29.185Z,3.10
2019-02-25T17:30:59.334Z,3.00
2019-02-25T17:33:32.194Z,3.00
2019-02-25T17:36:02.222Z,2.90
2019-02-25T17:38:32.612Z,3.00
2019-02-25T17:41:04.636Z,2.90
2019-02-25T17:43:36.460Z,3.10
2019-02-25T17:46:07.438Z,2.80
2019-02-25T17:48:38.810Z,2.90
2019-02-25T17:51:09.230Z,3.10
2019-02-25T17:56:10.425Z,2.90
2019-02-25T17:58:42.387Z,2.80
2019-02-25T18:01:12.654Z,2.90
2019-02-25T18:03:43.925Z,2.80
2019-02-25T18:06:14.494Z,2.80
2019-02-25T18:08:44.580Z,2.80
2019-02-25T18:11:17.942Z,2.80
2019-02-25T18:13:48.927Z,2.70
2019-02-25T18:16:19.802Z,2.80
2019-02-25T18:18:51.981Z,2.80
2019-02-25T18:21:21.917Z,3.10
2019-02-25T18:23:52.506Z,2.70
2019-02-25T18:26:22.945Z,2.80
2019-02-25T18:28:53.378Z,2.80
2019-02-25T18:31:23.843Z,2.70
2019-02-25T18:33:53.878Z,2.70
2019-02-25T18:36:25.959Z,2.80
2019-02-25T18:38:55.633Z,2.80
2019-02-25T18:41:27.418Z,2.50
2019-02-25T18:43:57.374Z,2.80
2019-02-25T18:46:28.183Z,2.80
2019-02-25T18:49:00.833Z,2.80
2019-02-25T18:51:32.844Z,2.90
2019-02-25T18:54:03.724Z,3.00
2019-02-25T18:56:35.470Z,2.90
2019-02-25T19:01:37.235Z,2.90
2019-02-25T19:04:07.499Z,2.90
2019-02-25T19:06:39.291Z,3.00
2019-02-25T19:09:14.231Z,3.10
2019-02-25T19:11:45.039Z,3.00
2019-02-25T19:14:17.837Z,3.00
2019-02-25T19:16:47.227Z,3.40
2019-02-25T19:19:19.228Z,3.10
2019-02-25T19:21:50.031Z,2.90
2019-02-25T19:24:21.427Z,3.10
2019-02-25T19:26:51.656Z,3.10
2019-02-25T19:29:23.805Z,3.20
2019-02-25T19:31:53.887Z,3.20
2019-02-25T19:34:24.276Z,3.20
2019-02-25T19:36:57.984Z,3.20
2019-02-25T19:39:26.584Z,2.80
2019-02-25T19:41:58.352Z,3.20
2019-02-25T19:44:29.818Z,3.20
2019-02-25T19:47:00.821Z,3.30
2019-02-25T19:49:31.090Z,3.20
2019-02-25T19:52:00.996Z,3.30
2019-02-25T19:54:34.167Z,3.20
2019-02-25T19:57:04.234Z,3.20
2019-02-25T19:59:34.239Z,3.20
2019-02-25T20:02:04.351Z,3.20
2019-02-25T20:04:35.915Z,3.30
2019-02-25T20:07:06.587Z,3.30
2019-02-25T20:12:08.620Z,3.20
2019-02-25T20:14:38.706Z,3.20
2019-02-25T20:17:08.639Z,3.20
2019-02-25T20:19:39.206Z,3.30
2019-02-25T20:22:12.099Z,3.10
2019-02-25T20:24:45.851Z,3.20
2019-02-25T20:27:14.121Z,3.20
2019-02-25T20:29:44.605Z,3.30
2019-02-25T20:32:16.514Z,3.30
2019-02-25T20:34:49.912Z,3.30
2019-02-25T20:37:22.752Z,3.30
2019-02-25T20:39:51.036Z,3.20
2019-02-25T20:42:22.282Z,3.30
2019-02-25T20:44:55.094Z,3.10
2019-02-25T20:47:24.748Z,3.30
2019-02-25T20:49:56.065Z,3.40
2019-02-25T20:52:27.072Z,3.20
2019-02-25T20:54:57.557Z,3.30
2019-02-25T20:57:29.515Z,3.30
2019-02-25T20:59:59.572Z,3.30
2019-02-25T21:05:07.759Z,3.30
2019-02-25T21:07:39.231Z,3.30
2019-02-25T21:10:22.801Z,3.50
2019-02-25T21:12:54.826Z,3.40
2019-02-25T21:15:25.867Z,3.40
2019-02-25T21:17:58.958Z,3.30
2019-02-25T21:20:28.857Z,3.30
2019-02-25T21:23:05.005Z,3.50
2019-02-25T21:25:34.295Z,3.40
2019-02-25T21:28:08.829Z,3.50
2019-02-25T21:30:41.802Z,3.40
2019-02-25T21:33:15.313Z,3.40
2019-02-25T21:38:19.538Z,3.50
2019-02-25T21:40:50.595Z,3.50
2019-02-25T21:43:25.716Z,3.40
2019-02-25T21:45:56.460Z,3.50
2019-02-25T21:48:27.518Z,3.40
2019-02-25T21:51:02.226Z,3.60
2019-02-25T21:53:31.282Z,3.40
2019-02-25T21:56:04.946Z,3.80
2019-02-25T21:58:35.682Z,3.30
2019-02-25T22:01:06.010Z,2.90
2019-02-25T22:03:39.343Z,3.30
2019-02-25T22:06:08.126Z,3.30
2019-02-25T22:11:14.777Z,3.30
2019-02-25T22:13:40.255Z,3.30
2019-02-25T22:16:10.243Z,3.20
2019-02-25T22:18:40.278Z,3.30
2019-02-25T22:21:12.225Z,3.50
2019-02-25T22:23:42.047Z,3.30
2019-02-25T22:26:13.274Z,3.40
2019-02-25T22:28:43.212Z,3.30
2019-02-25T22:31:13.982Z,3.40
2019-02-25T22:33:45.082Z,3.30
2019-02-25T22:36:15.228Z,3.20
2019-02-25T22:38:45.518Z,3.20
2019-02-25T22:41:16.749Z,3.10
2019-02-25T22:43:48.253Z,3.10
2019-02-25T22:46:18.499Z,3.10
2019-02-25T22:48:48.561Z,3.10
2019-02-25T22:51:19.509Z,3.00
2019-02-25T22:53:50.124Z,3.00
2019-02-25T22:56:21.484Z,3.00
2019-02-25T22:58:51.760Z,3.00
2019-02-25T23:01:22.112Z,3.10
2019-02-25T23:06:25.351Z,3.00
2019-02-25T23:08:56.768Z,3.00
2019-02-25T23:11:26.885Z,3.10
2019-02-25T23:13:56.909Z,3.00
2019-02-25T23:16:26.905Z,2.90
2019-02-25T23:18:56.841Z,2.80
2019-02-25T23:21:28.722Z,2.90
2019-02-25T23:24:00.483Z,3.00
2019-02-25T23:26:31.479Z,2.90
2019-02-25T23:29:01.418Z,2.80
2019-02-25T23:31:33.060Z,2.90
2019-02-25T23:34:05.561Z,2.80
2019-02-25T23:36:34.666Z,2.70
2019-02-25T23:39:06.579Z,2.70
2019-02-25T23:41:38.990Z,2.70
2019-02-25T23:46:40.313Z,2.70
2019-02-25T23:49:11.382Z,2.30
2019-02-25T23:51:42.029Z,2.80
2019-02-25T23:54:16.006Z,2.70
2019-02-25T23:56:47.657Z,2.70
2019-02-25T23:59:17.104Z,2.70
